createdAt,value
2017-11-20T00:01:47.833Z,2.00
2017-11-20T00:04:15.331Z,2.00
2017-11-20T00:06:42.840Z,2.00
2017-11-20T00:09:10.334Z,1.90
2017-11-20T00:11:38.616Z,1.90
2017-11-20T00:14:06.121Z,1.90
2017-11-20T00:16:33.640Z,1.90
2017-11-20T00:19:01.146Z,1.90
2017-11-20T00:21:28.661Z,1.90
2017-11-20T00:23:56.160Z,1.90
2017-11-20T00:26:23.676Z,1.80
2017-11-20T00:28:51.176Z,1.90
2017-11-20T00:31:18.687Z,1.90
2017-11-20T00:33:46.183Z,1.90
2017-11-20T00:36:13.700Z,1.80
2017-11-20T00:38:41.201Z,1.80
2017-11-20T00:41:08.721Z,1.90
2017-11-20T00:43:36.228Z,1.80
2017-11-20T00:46:03.753Z,1.70
2017-11-20T00:48:31.247Z,1.70
2017-11-20T00:50:58.779Z,1.80
2017-11-20T00:53:26.281Z,1.80
2017-11-20T00:55:54.546Z,1.80
2017-11-20T00:58:22.056Z,1.80
2017-11-20T01:00:49.560Z,1.80
2017-11-20T01:03:17.071Z,1.80
2017-11-20T01:05:44.574Z,1.80
2017-11-20T01:08:12.089Z,1.80
2017-11-20T01:10:39.593Z,1.80
2017-11-20T01:13:07.113Z,1.80
2017-11-20T01:15:34.607Z,1.80
2017-11-20T01:18:02.122Z,1.80
2017-11-20T01:20:29.616Z,1.70
2017-11-20T01:22:57.127Z,1.80
2017-11-20T01:25:24.628Z,1.80
2017-11-20T01:27:52.192Z,1.80
2017-11-20T01:30:19.697Z,1.80
2017-11-20T01:32:47.208Z,1.80
2017-11-20T01:35:14.745Z,1.70
2017-11-20T01:37:42.268Z,1.70
2017-11-20T01:40:09.769Z,1.70
2017-11-20T01:42:37.316Z,1.70
2017-11-20T01:45:04.820Z,1.80
2017-11-20T01:47:33.080Z,1.70
2017-11-20T01:50:00.598Z,1.70
2017-11-20T01:55:01.968Z,1.70
2017-11-20T01:57:29.467Z,1.70
2017-11-20T01:59:56.989Z,1.80
2017-11-20T02:02:24.484Z,1.70
2017-11-20T02:04:51.996Z,1.70
2017-11-20T02:07:19.497Z,1.70
2017-11-20T02:09:47.008Z,1.80
2017-11-20T02:12:14.512Z,1.80
2017-11-20T02:14:42.031Z,1.70
2017-11-20T02:17:09.541Z,1.70
2017-11-20T02:19:37.824Z,1.70
2017-11-20T02:22:06.094Z,1.70
2017-11-20T02:24:34.377Z,1.70
2017-11-20T02:27:02.645Z,1.80
2017-11-20T02:29:30.924Z,1.80
2017-11-20T02:31:59.185Z,1.80
2017-11-20T02:34:26.697Z,1.80
2017-11-20T02:36:54.197Z,1.80
2017-11-20T02:39:21.711Z,1.80
2017-11-20T02:41:49.212Z,1.80
2017-11-20T02:44:16.709Z,1.90
2017-11-20T02:46:44.219Z,1.90
2017-11-20T02:49:11.712Z,1.90
2017-11-20T02:51:39.993Z,1.80
2017-11-20T02:54:07.497Z,1.80
2017-11-20T02:56:35.012Z,1.80
2017-11-20T02:59:02.512Z,1.80
2017-11-20T03:01:30.796Z,1.90
2017-11-20T03:03:58.293Z,1.90
2017-11-20T03:06:26.577Z,1.90
2017-11-20T03:08:54.076Z,1.90
2017-11-20T03:11:21.595Z,1.90
2017-11-20T03:13:49.096Z,1.90
2017-11-20T03:16:16.611Z,1.90
2017-11-20T03:18:44.112Z,1.90
2017-11-20T03:21:11.627Z,1.90
2017-11-20T03:23:39.129Z,1.90
2017-11-20T03:26:06.652Z,1.90
2017-11-20T03:28:34.165Z,1.90
2017-11-20T03:31:01.689Z,1.90
2017-11-20T03:33:29.188Z,1.90
2017-11-20T03:35:56.705Z,1.90
2017-11-20T03:38:24.207Z,1.90
2017-11-20T03:40:52.480Z,1.90
2017-11-20T03:43:19.996Z,1.90
2017-11-20T03:45:47.503Z,1.80
2017-11-20T03:48:15.788Z,1.80
2017-11-20T03:50:44.064Z,1.80
2017-11-20T03:53:12.348Z,1.80
2017-11-20T03:55:40.616Z,1.70
2017-11-20T03:58:08.903Z,1.70
2017-11-20T04:00:36.396Z,1.70
2017-11-20T04:03:03.918Z,1.70
2017-11-20T04:05:31.436Z,1.70
2017-11-20T04:07:58.956Z,1.60
2017-11-20T04:10:26.463Z,1.60
2017-11-20T04:12:53.980Z,1.60
2017-11-20T04:15:21.484Z,1.60
2017-11-20T04:17:49.772Z,1.60
2017-11-20T04:20:18.044Z,1.60
2017-11-20T04:22:46.325Z,1.70
2017-11-20T04:25:14.588Z,1.70
2017-11-20T04:27:42.099Z,1.60
2017-11-20T04:30:09.603Z,1.60
2017-11-20T04:32:37.153Z,1.50
2017-11-20T04:35:04.647Z,1.60
2017-11-20T04:37:32.144Z,1.50
2017-11-20T04:40:00.066Z,1.50
2017-11-20T04:42:27.628Z,1.60
2017-11-20T04:44:55.144Z,1.50
2017-11-20T04:47:22.642Z,1.50
2017-11-20T04:49:50.929Z,1.40
2017-11-20T04:52:18.428Z,1.40
2017-11-20T04:54:45.943Z,1.40
2017-11-20T04:57:13.438Z,1.30
2017-11-20T04:59:40.957Z,1.40
2017-11-20T05:02:08.461Z,1.30
2017-11-20T05:04:35.976Z,1.30
2017-11-20T05:07:03.479Z,1.20
2017-11-20T05:09:30.996Z,1.20
2017-11-20T05:11:58.496Z,1.20
2017-11-20T05:14:26.014Z,1.10
2017-11-20T05:16:53.519Z,1.10
2017-11-20T05:19:21.037Z,1.10
2017-11-20T05:21:48.540Z,1.00
2017-11-20T05:24:16.059Z,1.00
2017-11-20T05:26:43.560Z,1.00
2017-11-20T05:29:11.084Z,1.00
2017-11-20T05:31:38.588Z,1.10
2017-11-20T05:34:06.879Z,1.00
2017-11-20T05:36:35.135Z,1.00
2017-11-20T05:39:02.636Z,1.00
2017-11-20T05:41:30.156Z,1.00
2017-11-20T05:43:58.421Z,1.00
2017-11-20T05:46:25.931Z,1.00
2017-11-20T05:48:53.423Z,1.00
2017-11-20T05:51:20.941Z,1.00
2017-11-20T05:53:48.440Z,1.00
2017-11-20T05:56:15.961Z,1.00
2017-11-20T05:58:43.461Z,1.00
2017-11-20T06:01:10.980Z,1.00
2017-11-20T06:03:38.485Z,1.00
2017-11-20T06:06:06.002Z,1.00
2017-11-20T06:08:33.508Z,1.00
2017-11-20T06:11:01.793Z,1.00
2017-11-20T06:13:30.053Z,1.10
2017-11-20T06:15:57.570Z,1.10
2017-11-20T06:18:25.067Z,1.10
2017-11-20T06:20:52.584Z,1.20
2017-11-20T06:23:20.088Z,1.30
2017-11-20T06:25:47.629Z,1.30
2017-11-20T06:28:15.128Z,1.20
2017-11-20T06:30:42.632Z,1.30
2017-11-20T06:33:10.916Z,1.60
2017-11-20T06:35:38.425Z,1.60
2017-11-20T06:38:05.945Z,1.60
2017-11-20T06:40:33.468Z,1.70
2017-11-20T06:43:00.989Z,1.90
2017-11-20T06:45:29.261Z,1.80
2017-11-20T06:47:56.795Z,1.70
2017-11-20T06:50:24.301Z,1.80
2017-11-20T06:52:51.821Z,1.80
2017-11-20T06:55:19.323Z,1.80
2017-11-20T06:57:46.840Z,1.90
2017-11-20T07:00:15.104Z,2.00
2017-11-20T07:02:42.624Z,1.90
2017-11-20T07:05:10.135Z,1.90
2017-11-20T07:07:38.425Z,2.00
2017-11-20T07:10:06.692Z,2.00
2017-11-20T07:12:34.968Z,1.90
2017-11-20T07:15:03.235Z,1.90
2017-11-20T07:17:31.525Z,1.90
2017-11-20T07:19:59.792Z,1.90
2017-11-20T07:22:28.105Z,1.90
2017-11-20T07:24:55.608Z,1.90
2017-11-20T07:27:50.062Z,1.70
2017-11-20T07:30:30.061Z,1.70
2017-11-20T07:32:58.382Z,1.80
2017-11-20T07:35:25.893Z,1.80
2017-11-20T07:41:04.525Z,1.80
2017-11-20T07:43:32.069Z,1.90
2017-11-20T07:45:59.581Z,1.80
2017-11-20T07:48:27.084Z,1.90
2017-11-20T07:50:54.609Z,2.00
2017-11-20T07:53:22.112Z,2.00
2017-11-20T07:55:49.626Z,2.10
2017-11-20T07:58:17.128Z,2.20
2017-11-20T08:00:44.656Z,2.30
2017-11-20T08:03:12.936Z,2.30
2017-11-20T08:05:40.456Z,2.30
2017-11-20T08:08:07.960Z,2.40
2017-11-20T08:10:35.476Z,2.40
2017-11-20T08:13:02.984Z,2.50
2017-11-20T08:15:30.503Z,2.50
2017-11-20T08:17:58.015Z,2.50
2017-11-20T08:20:25.572Z,2.50
2017-11-20T08:22:53.081Z,2.40
2017-11-20T08:25:20.584Z,2.50
2017-11-20T08:27:48.112Z,2.50
2017-11-20T08:30:15.621Z,2.40
2017-11-20T08:32:43.913Z,2.50
2017-11-20T08:35:11.430Z,2.60
2017-11-20T08:37:38.957Z,2.60
2017-11-20T08:40:06.461Z,2.70
2017-11-20T08:42:33.993Z,2.60
2017-11-20T08:45:01.507Z,2.50
2017-11-20T08:47:29.029Z,2.50
2017-11-20T08:49:56.536Z,2.50
2017-11-20T08:52:24.057Z,2.70
2017-11-20T08:54:52.335Z,2.60
2017-11-20T08:57:20.624Z,2.70
2017-11-20T08:59:48.896Z,2.80
2017-11-20T09:02:17.184Z,2.70
2017-11-20T09:04:45.452Z,2.70
2017-11-20T09:07:12.992Z,2.70
2017-11-20T09:09:40.510Z,2.70
2017-11-20T09:12:08.039Z,2.80
2017-11-20T09:14:35.552Z,2.60
2017-11-20T09:17:03.101Z,2.50
2017-11-20T09:19:30.599Z,2.50
2017-11-20T09:21:58.898Z,2.60
2017-11-20T09:24:26.424Z,2.60
2017-11-20T09:26:54.701Z,2.80
2017-11-20T09:29:22.991Z,2.80
2017-11-20T09:31:51.261Z,2.70
2017-11-20T09:34:19.560Z,2.80
2017-11-20T09:36:47.061Z,2.80
2017-11-20T09:39:14.588Z,2.90
2017-11-20T09:41:42.125Z,3.10
2017-11-20T09:44:09.658Z,3.20
2017-11-20T09:46:37.165Z,3.30
2017-11-20T09:49:04.675Z,3.30
2017-11-20T09:51:32.192Z,3.40
2017-11-20T09:53:59.722Z,3.40
2017-11-20T09:56:27.222Z,3.30
2017-11-20T09:58:54.741Z,3.50
2017-11-20T10:01:22.248Z,3.70
2017-11-20T10:03:49.786Z,3.80
2017-11-20T10:06:17.297Z,3.90
2017-11-20T10:08:45.608Z,3.80
2017-11-20T10:11:13.122Z,3.80
2017-11-20T10:13:41.402Z,3.80
2017-11-20T10:16:09.722Z,3.90
2017-11-20T10:18:37.232Z,3.90
2017-11-20T10:21:05.513Z,3.70
2017-11-20T10:23:33.788Z,4.00
2017-11-20T10:26:02.077Z,4.00
2017-11-20T10:28:30.349Z,3.80
2017-11-20T10:30:58.641Z,3.70
2017-11-20T10:33:26.153Z,3.70
2017-11-20T10:35:53.673Z,3.70
2017-11-20T10:38:21.173Z,3.80
2017-11-20T10:40:48.696Z,3.70
2017-11-20T10:43:16.201Z,3.80
2017-11-20T10:45:44.507Z,3.80
2017-11-20T10:48:12.009Z,3.80
2017-11-20T10:50:39.526Z,3.90
2017-11-20T10:53:07.037Z,4.00
2017-11-20T10:55:34.565Z,4.00
2017-11-20T10:58:02.073Z,4.10
2017-11-20T11:00:30.360Z,3.90
2017-11-20T11:02:58.637Z,3.90
2017-11-20T11:05:26.164Z,3.90
2017-11-20T11:07:53.659Z,3.90
2017-11-20T11:10:21.165Z,4.00
2017-11-20T11:12:48.703Z,4.00
2017-11-20T11:15:16.209Z,3.90
2017-11-20T11:17:43.728Z,4.10
2017-11-20T11:20:11.228Z,4.10
2017-11-20T11:22:39.534Z,4.10
2017-11-20T11:25:07.040Z,4.00
2017-11-20T11:27:34.560Z,4.10
2017-11-20T11:30:02.064Z,4.20
2017-11-20T11:32:29.592Z,4.20
2017-11-20T11:34:57.098Z,4.20
2017-11-20T11:37:25.392Z,4.10
2017-11-20T11:39:52.901Z,4.00
2017-11-20T11:42:20.416Z,4.10
2017-11-20T11:44:47.913Z,4.30
2017-11-20T11:47:15.457Z,4.20
2017-11-20T11:49:42.962Z,4.10
2017-11-20T11:52:11.232Z,4.10
2017-11-20T11:54:38.754Z,4.10
2017-11-20T11:57:06.261Z,4.20
2017-11-20T11:59:34.553Z,4.10
2017-11-20T12:02:02.052Z,4.00
2017-11-20T12:04:29.568Z,4.20
2017-11-20T12:06:57.081Z,4.10
2017-11-20T12:09:24.608Z,4.10
2017-11-20T12:11:52.111Z,4.00
2017-11-20T12:14:20.415Z,4.10
2017-11-20T12:16:48.678Z,4.10
2017-11-20T12:19:16.960Z,4.10
2017-11-20T12:21:45.245Z,4.20
2017-11-20T12:24:12.784Z,4.10
2017-11-20T12:26:41.048Z,4.20
2017-11-20T12:29:08.552Z,4.20
2017-11-20T12:31:36.072Z,4.20
2017-11-20T12:34:03.569Z,4.20
2017-11-20T12:36:31.076Z,4.10
2017-11-20T12:38:58.582Z,4.20
2017-11-20T12:41:26.101Z,4.10
2017-11-20T12:43:53.592Z,4.10
2017-11-20T12:46:21.108Z,4.00
2017-11-20T12:48:48.608Z,4.20
2017-11-20T12:51:16.120Z,4.30
2017-11-20T12:53:43.625Z,4.10
2017-11-20T12:56:11.140Z,4.10
2017-11-20T12:58:38.632Z,4.30
2017-11-20T13:01:06.153Z,4.20
2017-11-20T13:03:33.646Z,4.10
2017-11-20T13:06:01.164Z,4.10
2017-11-20T13:08:28.656Z,4.30
2017-11-20T13:10:56.936Z,4.50
2017-11-20T13:13:25.204Z,4.40
2017-11-20T13:15:53.504Z,4.50
2017-11-20T13:18:21.007Z,4.50
2017-11-20T13:20:48.503Z,4.40
2017-11-20T13:23:16.795Z,4.10
2017-11-20T13:25:44.297Z,4.10
2017-11-20T13:28:11.817Z,4.00
2017-11-20T13:30:39.332Z,4.20
2017-11-20T13:33:06.882Z,4.10
2017-11-20T13:35:34.423Z,4.00
2017-11-20T13:38:01.935Z,3.90
2017-11-20T13:40:29.432Z,3.80
2017-11-20T13:42:56.944Z,3.70
2017-11-20T13:45:25.224Z,3.50
2017-11-20T13:47:52.741Z,3.40
2017-11-20T13:50:20.235Z,3.50
2017-11-20T13:52:48.507Z,3.20
2017-11-20T13:55:16.775Z,3.20
2017-11-20T13:57:45.069Z,3.00
2017-11-20T14:00:12.569Z,2.90
2017-11-20T14:02:40.081Z,2.90
2017-11-20T14:05:08.339Z,2.90
2017-11-20T14:07:36.648Z,2.90
2017-11-20T14:10:04.140Z,2.90
2017-11-20T14:12:31.640Z,3.00
2017-11-20T14:14:59.925Z,3.00
2017-11-20T14:17:28.193Z,2.80
2017-11-20T14:19:56.476Z,2.80
2017-11-20T14:22:24.740Z,2.70
2017-11-20T14:24:53.020Z,2.70
2017-11-20T14:27:21.280Z,2.70
2017-11-20T14:29:48.791Z,2.60
2017-11-20T14:32:16.289Z,2.70
2017-11-20T14:34:43.802Z,2.70
2017-11-20T14:37:11.300Z,2.60
2017-11-20T14:39:38.817Z,2.60
2017-11-20T14:42:06.319Z,2.50
2017-11-20T14:44:33.833Z,2.50
2017-11-20T14:47:02.037Z,2.50
2017-11-20T14:49:29.552Z,2.40
2017-11-20T14:52:07.644Z,2.40
2017-11-20T14:54:36.659Z,2.40
2017-11-20T14:57:04.157Z,2.30
2017-11-20T14:59:31.672Z,2.40
2017-11-20T15:01:59.167Z,2.40
2017-11-20T15:04:26.664Z,2.30
2017-11-20T15:06:54.939Z,2.40
2017-11-20T15:09:23.207Z,2.40
2017-11-20T15:11:51.491Z,2.40
2017-11-20T15:14:19.752Z,2.60
2017-11-20T15:16:47.268Z,2.50
2017-11-20T15:19:14.759Z,2.50
2017-11-20T15:21:42.269Z,2.60
2017-11-20T15:24:09.765Z,2.50
2017-11-20T15:26:37.285Z,2.60
2017-11-20T15:29:04.790Z,2.70
2017-11-20T15:31:32.304Z,2.60
2017-11-20T15:33:59.812Z,2.60
2017-11-20T15:36:27.324Z,2.70
2017-11-20T15:38:54.827Z,2.80
2017-11-20T15:41:22.354Z,2.80
2017-11-20T15:43:49.848Z,2.70
2017-11-20T15:46:17.359Z,2.60
2017-11-20T15:48:44.859Z,2.70
2017-11-20T15:51:12.372Z,2.50
2017-11-20T15:53:39.868Z,2.30
2017-11-20T15:56:07.361Z,2.40
2017-11-20T15:58:35.641Z,2.50
2017-11-20T16:01:03.148Z,2.60
2017-11-20T16:03:30.670Z,2.50
2017-11-20T16:05:58.171Z,2.50
2017-11-20T16:08:25.702Z,2.60
2017-11-20T16:10:53.204Z,2.50
2017-11-20T16:13:20.712Z,2.60
2017-11-20T16:15:48.208Z,2.60
2017-11-20T16:18:15.728Z,2.60
2017-11-20T16:20:43.228Z,2.60
2017-11-20T16:23:10.740Z,2.70
2017-11-20T16:25:38.249Z,2.70
2017-11-20T16:28:05.763Z,2.60
2017-11-20T16:30:33.261Z,2.70
2017-11-20T16:33:00.781Z,2.70
2017-11-20T16:35:28.284Z,2.70
2017-11-20T16:37:55.796Z,2.60
2017-11-20T16:40:23.296Z,2.90
2017-11-20T16:42:50.817Z,2.90
2017-11-20T16:45:18.312Z,2.80
2017-11-20T16:47:45.824Z,2.90
2017-11-20T16:50:13.340Z,2.80
2017-11-20T16:52:41.613Z,2.90
2017-11-20T16:55:09.892Z,3.00
2017-11-20T17:00:50.483Z,3.00
2017-11-20T17:03:30.544Z,3.20
2017-11-20T17:05:58.825Z,3.00
2017-11-20T17:08:26.324Z,3.00
2017-11-20T17:10:53.844Z,2.90
2017-11-20T17:13:21.340Z,3.10
2017-11-20T17:15:48.852Z,3.20
2017-11-20T17:18:17.116Z,3.40
2017-11-20T17:20:45.401Z,3.50
2017-11-20T17:23:13.664Z,3.40
2017-11-20T17:25:42.008Z,3.60
2017-11-20T17:28:09.515Z,3.60
2017-11-20T17:30:37.800Z,3.70
2017-11-20T17:33:05.297Z,3.70
2017-11-20T17:35:32.810Z,3.80
2017-11-20T17:38:00.305Z,3.90
2017-11-20T17:40:27.857Z,3.90
2017-11-20T17:42:55.354Z,3.90
2017-11-20T17:45:22.864Z,3.90
2017-11-20T17:47:50.383Z,4.00
2017-11-20T17:50:18.648Z,4.10
2017-11-20T17:52:46.166Z,4.00
2017-11-20T17:55:13.668Z,4.10
2017-11-20T17:57:41.180Z,4.10
2017-11-20T18:00:08.672Z,4.20
2017-11-20T18:02:36.186Z,4.20
2017-11-20T18:05:03.697Z,4.20
2017-11-20T18:07:31.213Z,4.20
2017-11-20T18:09:58.712Z,4.30
2017-11-20T18:12:26.232Z,4.30
2017-11-20T18:14:54.414Z,4.30
2017-11-20T18:17:21.952Z,4.30
2017-11-20T18:19:49.445Z,4.30
2017-11-20T18:22:16.948Z,4.30
2017-11-20T18:24:44.470Z,4.40
2017-11-20T18:27:11.969Z,4.50
2017-11-20T18:29:39.481Z,4.50
2017-11-20T18:32:06.976Z,4.50
2017-11-20T18:34:35.265Z,4.40
2017-11-20T18:37:02.772Z,4.40
2017-11-20T18:39:30.303Z,4.50
2017-11-20T18:41:57.804Z,4.50
2017-11-20T18:44:25.317Z,4.50
2017-11-20T18:46:52.812Z,4.50
2017-11-20T18:49:20.332Z,4.50
2017-11-20T18:51:47.824Z,4.60
2017-11-20T18:54:15.325Z,4.60
2017-11-20T18:56:42.834Z,4.60
2017-11-20T18:59:10.332Z,4.70
2017-11-20T19:01:49.661Z,4.70
2017-11-20T19:04:29.634Z,4.80
2017-11-20T19:07:09.064Z,4.80
2017-11-20T19:09:36.554Z,4.80
2017-11-20T19:12:04.067Z,4.80
2017-11-20T19:14:32.424Z,4.80
2017-11-20T19:16:59.944Z,4.80
2017-11-20T19:19:27.445Z,4.90
2017-11-20T19:21:55.720Z,4.80
2017-11-20T19:24:23.985Z,4.80
2017-11-20T19:26:51.494Z,4.80
2017-11-20T19:29:18.990Z,4.80
2017-11-20T19:31:46.519Z,4.70
2017-11-20T19:34:14.016Z,4.70
2017-11-20T19:36:41.528Z,4.70
2017-11-20T19:39:09.028Z,4.60
2017-11-20T19:41:36.564Z,4.60
2017-11-20T19:44:04.059Z,4.50
2017-11-20T19:46:32.324Z,4.30
2017-11-20T19:48:59.848Z,4.30
2017-11-20T19:51:27.345Z,4.10
2017-11-20T19:53:54.860Z,4.00
2017-11-20T19:56:22.399Z,3.90
2017-11-20T19:58:49.914Z,3.80
2017-11-20T20:01:17.412Z,3.60
2017-11-20T20:03:44.928Z,3.50
2017-11-20T20:06:12.420Z,3.30
2017-11-20T20:08:40.004Z,3.20
2017-11-20T20:11:07.520Z,3.10
2017-11-20T20:13:46.707Z,3.00
2017-11-20T20:16:26.176Z,3.00
2017-11-20T20:18:53.744Z,2.90
2017-11-20T20:21:21.469Z,2.90
2017-11-20T20:23:49.023Z,2.80
2017-11-20T20:26:16.535Z,2.70
2017-11-20T20:28:44.797Z,2.70
2017-11-20T20:31:12.319Z,2.70
2017-11-20T20:33:39.814Z,2.60
2017-11-20T20:36:07.332Z,2.70
2017-11-20T20:38:34.828Z,2.60
2017-11-20T20:41:02.578Z,2.70
2017-11-20T20:43:30.083Z,2.60
2017-11-20T20:45:57.824Z,2.60
2017-11-20T20:48:26.122Z,2.60
2017-11-20T20:50:53.948Z,2.60
2017-11-20T20:53:21.489Z,2.60
2017-11-20T20:55:48.983Z,2.60
2017-11-20T20:58:17.260Z,2.60
2017-11-20T21:00:45.523Z,2.60
2017-11-20T21:03:13.074Z,2.60
2017-11-20T21:05:40.898Z,2.70
2017-11-20T21:08:08.424Z,2.60
2017-11-20T21:10:42.623Z,2.60
2017-11-20T21:13:10.380Z,2.60
2017-11-20T21:15:37.884Z,2.70
2017-11-20T21:18:05.400Z,2.60
2017-11-20T21:20:32.903Z,2.70
2017-11-20T21:23:00.412Z,2.70
2017-11-20T21:25:27.948Z,2.70
2017-11-20T21:27:56.236Z,2.80
2017-11-20T21:30:23.733Z,2.80
2017-11-20T21:32:51.256Z,2.90
2017-11-20T21:35:18.760Z,3.00
2017-11-20T21:37:46.277Z,3.00
2017-11-20T21:40:13.776Z,3.20
2017-11-20T21:42:41.301Z,3.30
2017-11-20T21:45:08.793Z,3.30
2017-11-20T21:47:36.305Z,3.30
2017-11-20T21:50:03.812Z,3.30
2017-11-20T21:54:59.925Z,3.40
2017-11-20T21:57:28.234Z,3.40
2017-11-20T21:59:55.732Z,3.40
2017-11-20T22:02:23.228Z,3.40
2017-11-20T22:04:51.512Z,3.50
2017-11-20T22:07:19.026Z,3.50
2017-11-20T22:09:46.547Z,3.40
2017-11-20T22:12:14.044Z,3.50
2017-11-20T22:14:41.557Z,3.50
2017-11-20T22:17:09.079Z,3.50
2017-11-20T22:19:36.579Z,3.50
2017-11-20T22:22:04.076Z,3.50
2017-11-20T22:24:31.621Z,3.50
2017-11-20T22:26:59.124Z,3.60
2017-11-20T22:29:26.628Z,3.50
2017-11-20T22:31:54.140Z,3.60
2017-11-20T22:34:22.396Z,3.70
2017-11-20T22:36:49.912Z,3.70
2017-11-20T22:39:17.446Z,3.80
2017-11-20T22:41:44.963Z,3.80
2017-11-20T22:44:12.468Z,3.90
2017-11-20T22:46:39.989Z,3.90
2017-11-20T22:49:07.484Z,3.80
2017-11-20T22:51:35.000Z,3.90
2017-11-20T22:54:02.497Z,3.90
2017-11-20T22:56:30.020Z,4.00
2017-11-20T22:58:57.521Z,4.00
2017-11-20T23:01:25.022Z,4.00
2017-11-20T23:03:52.533Z,4.10
2017-11-20T23:06:20.037Z,4.10
2017-11-20T23:08:47.556Z,4.20
2017-11-20T23:11:15.053Z,4.20
2017-11-20T23:13:42.567Z,4.30
2017-11-20T23:16:10.065Z,4.40
2017-11-20T23:18:37.581Z,4.40
2017-11-20T23:21:05.076Z,4.40
2017-11-20T23:23:33.356Z,4.50
2017-11-20T23:26:00.853Z,4.50
2017-11-20T23:28:29.156Z,4.60
2017-11-20T23:30:56.656Z,4.60
2017-11-20T23:33:24.158Z,4.70
2017-11-20T23:35:51.676Z,4.80
2017-11-20T23:38:19.171Z,4.70
2017-11-20T23:40:46.680Z,4.90
2017-11-20T23:43:14.176Z,4.90
2017-11-20T23:45:42.464Z,4.90
2017-11-20T23:48:09.964Z,4.90
2017-11-20T23:50:37.478Z,4.90
2017-11-20T23:53:04.981Z,5.00
2017-11-20T23:55:32.495Z,5.00
2017-11-20T23:57:59.997Z,5.00
